Aparecida do Taboado, Brazil
Current Conditions -  °F | °C
As of 4:00 AM on Friday 31 Oct 2014 (Local Time) from SBSR Reporting Station
Scattered Clouds Scattered Clouds  
Wind Chill: 72°   Ceiling: Unl
Heat Index: 72°   Visibility: 6mi
Dew Point: 66°   Wind: 0mph
Humidity: 83%   Direction: NA
Pressure: 29.97"   Gusts: NA
Location:  20.09°S, 51.09°W
Report Text: SBSR 310700Z 00000KT 9999 SCT008 22/19 Q1015
Loading
Personal Weather Stations






























Interactive Weather Map
Tropical Storm Tracking
New forecast layout! Learn more

10-Day Weather Forecast

Advertisements
Track Severe Weather on mobile